createdAt,value
2023-02-09T00:00:27.408Z,100.00
2023-02-09T00:05:23.700Z,100.00
2023-02-09T00:10:20.134Z,100.00
2023-02-09T00:15:16.435Z,100.00
2023-02-09T00:20:12.814Z,100.00
2023-02-09T00:25:09.156Z,100.00
2023-02-09T00:30:06.046Z,100.00
2023-02-09T00:35:02.556Z,100.00
2023-02-09T00:39:58.861Z,100.00
2023-02-09T00:44:55.181Z,100.00
2023-02-09T00:49:51.473Z,100.00
2023-02-09T00:54:47.781Z,100.00
2023-02-09T00:59:44.156Z,100.00
2023-02-09T01:04:40.582Z,100.00
2023-02-09T01:09:36.943Z,100.00
2023-02-09T01:14:33.368Z,100.00
2023-02-09T01:19:29.785Z,100.00
2023-02-09T01:24:26.534Z,100.00
2023-02-09T01:29:22.965Z,100.00
2023-02-09T01:34:19.431Z,100.00
2023-02-09T01:39:15.836Z,100.00
2023-02-09T01:44:12.161Z,100.00
2023-02-09T01:49:16.354Z,100.00
2023-02-09T01:54:17.003Z,100.00
2023-02-09T01:59:15.403Z,100.00
2023-02-09T02:04:12.735Z,100.00
2023-02-09T02:09:12.618Z,100.00
2023-02-09T02:14:28.825Z,100.00
2023-02-09T02:20:01.305Z,100.00
2023-02-09T02:25:26.783Z,100.00
2023-02-09T02:30:29.606Z,100.00
2023-02-09T02:35:35.684Z,100.00
2023-02-09T02:40:46.319Z,100.00
2023-02-09T02:46:26.795Z,100.00
2023-02-09T02:51:30.505Z,100.00
2023-02-09T02:56:49.709Z,100.00
2023-02-09T03:01:55.786Z,100.00
2023-02-09T03:06:52.397Z,100.00
2023-02-09T03:11:54.523Z,100.00
2023-02-09T03:17:06.610Z,100.00
2023-02-09T03:22:33.250Z,100.00
2023-02-09T03:27:37.602Z,100.00
2023-02-09T03:32:38.618Z,100.00
2023-02-09T03:37:34.964Z,100.00
2023-02-09T03:42:31.339Z,100.00
2023-02-09T03:47:27.713Z,100.00
2023-02-09T03:52:24.111Z,100.00
2023-02-09T03:57:20.494Z,100.00
2023-02-09T04:02:16.975Z,100.00
2023-02-09T04:07:13.901Z,100.00
2023-02-09T04:12:10.448Z,100.00
2023-02-09T04:17:06.843Z,100.00
2023-02-09T04:22:03.253Z,100.00
2023-02-09T04:27:00.038Z,100.00
2023-02-09T04:31:56.615Z,100.00
2023-02-09T04:36:53.643Z,100.00
2023-02-09T04:41:50.002Z,100.00
2023-02-09T04:46:46.382Z,100.00
2023-02-09T04:51:42.789Z,100.00
2023-02-09T04:56:39.158Z,100.00
2023-02-09T05:01:35.615Z,100.00
2023-02-09T05:06:32.052Z,100.00
2023-02-09T05:11:28.440Z,100.00
2023-02-09T05:16:24.949Z,100.00
2023-02-09T05:21:21.379Z,100.00
2023-02-09T05:26:17.884Z,100.00
2023-02-09T05:31:14.871Z,100.00
2023-02-09T05:36:12.819Z,100.00
2023-02-09T05:41:32.037Z,100.00
2023-02-09T05:46:28.614Z,100.00
2023-02-09T05:51:24.995Z,100.00
2023-02-09T05:56:22.573Z,100.00
2023-02-09T06:01:19.258Z,100.00
2023-02-09T06:06:15.641Z,100.00
2023-02-09T06:11:12.020Z,100.00
2023-02-09T06:16:08.498Z,100.00
2023-02-09T06:21:06.273Z,100.00
2023-02-09T06:26:14.021Z,100.00
2023-02-09T06:31:11.929Z,100.00
2023-02-09T06:36:09.093Z,100.00
2023-02-09T06:41:05.774Z,100.00
2023-02-09T06:46:07.054Z,100.00
2023-02-09T06:51:08.047Z,100.00
2023-02-09T06:56:05.786Z,100.00
2023-02-09T07:01:10.122Z,100.00
2023-02-09T07:06:15.729Z,100.00
2023-02-09T07:11:15.353Z,100.00
2023-02-09T07:16:12.651Z,100.00
2023-02-09T07:21:15.473Z,100.00
2023-02-09T07:26:15.408Z,100.00
2023-02-09T07:31:14.383Z,100.00
2023-02-09T07:36:11.817Z,100.00
2023-02-09T07:41:14.109Z,100.00
2023-02-09T07:46:13.695Z,100.00
2023-02-09T07:51:19.853Z,100.00
2023-02-09T07:56:16.779Z,100.00
2023-02-09T08:01:13.411Z,100.00
2023-02-09T08:06:40.979Z,100.00
2023-02-09T08:11:44.694Z,100.00
2023-02-09T08:16:42.248Z,100.00
2023-02-09T08:21:41.607Z,100.00
2023-02-09T08:26:38.736Z,100.00
2023-02-09T08:31:35.185Z,100.00
2023-02-09T08:36:31.985Z,100.00
2023-02-09T08:41:28.334Z,100.00
2023-02-09T08:46:25.092Z,100.00
2023-02-09T08:51:21.773Z,100.00
2023-02-09T08:56:19.642Z,100.00
2023-02-09T09:01:16.145Z,100.00
2023-02-09T09:06:12.619Z,100.00
2023-02-09T09:11:12.935Z,100.00
2023-02-09T09:16:18.336Z,100.00
2023-02-09T09:21:17.390Z,100.00
2023-02-09T09:26:15.911Z,100.00
2023-02-09T09:31:16.782Z,100.00
2023-02-09T09:36:14.640Z,100.00
2023-02-09T09:41:24.449Z,100.00
2023-02-09T09:46:28.266Z,100.00
2023-02-09T09:51:44.458Z,100.00
2023-02-09T09:56:41.645Z,100.00
2023-02-09T10:01:38.037Z,100.00
2023-02-09T10:06:34.557Z,100.00
2023-02-09T10:11:41.556Z,100.00
2023-02-09T10:16:38.326Z,100.00
2023-02-09T10:21:36.234Z,100.00
2023-02-09T10:26:34.574Z,100.00
2023-02-09T10:31:50.516Z,100.00
2023-02-09T10:36:52.565Z,100.00
2023-02-09T10:41:52.478Z,100.00
2023-02-09T10:46:49.288Z,100.00
2023-02-09T10:51:45.852Z,100.00
2023-02-09T10:56:45.294Z,100.00
2023-02-09T11:01:43.899Z,100.00
2023-02-09T11:06:52.626Z,100.00
2023-02-09T11:11:49.078Z,100.00
2023-02-09T11:17:10.571Z,100.00
2023-02-09T11:22:37.647Z,100.00
2023-02-09T11:27:50.834Z,98.10
2023-02-09T11:33:03.019Z,97.94
2023-02-09T11:38:05.594Z,92.92
2023-02-09T11:43:13.495Z,91.75
2023-02-09T11:48:29.114Z,88.65
2023-02-09T11:53:28.511Z,90.53
2023-02-09T11:58:33.957Z,90.46
2023-02-09T12:03:30.656Z,90.82
2023-02-09T12:08:44.304Z,90.01
2023-02-09T12:14:18.218Z,84.95
2023-02-09T12:19:40.861Z,87.56
2023-02-09T12:24:40.832Z,86.61
2023-02-09T12:29:40.097Z,86.47
2023-02-09T12:34:49.525Z,84.57
2023-02-09T12:40:04.995Z,81.15
2023-02-09T12:45:01.564Z,80.11
2023-02-09T12:50:05.082Z,80.57
2023-02-09T12:55:17.604Z,79.76
2023-02-09T13:00:13.973Z,79.37
2023-02-09T13:05:18.348Z,76.09
2023-02-09T13:10:27.603Z,77.44
2023-02-09T13:15:27.752Z,75.74
2023-02-09T13:20:54.845Z,78.70
2023-02-09T13:26:00.437Z,77.89
2023-02-09T13:30:56.884Z,75.38
2023-02-09T13:36:23.797Z,76.12
2023-02-09T13:41:33.410Z,77.56
2023-02-09T13:46:34.449Z,76.56
2023-02-09T13:51:30.780Z,76.66
2023-02-09T13:56:28.342Z,76.36
2023-02-09T14:01:29.791Z,76.21
2023-02-09T14:06:32.072Z,75.46
2023-02-09T14:11:42.610Z,74.92
2023-02-09T14:16:52.659Z,73.04
2023-02-09T14:21:50.165Z,73.83
2023-02-09T14:27:07.878Z,73.40
2023-02-09T14:32:33.578Z,73.97
2023-02-09T14:37:30.681Z,72.81
2023-02-09T14:42:32.810Z,73.37
2023-02-09T14:47:41.256Z,74.11
2023-02-09T14:52:39.888Z,75.86
2023-02-09T14:57:38.556Z,76.71
2023-02-09T15:02:35.060Z,77.16
2023-02-09T15:07:35.445Z,77.06
2023-02-09T15:12:32.086Z,74.96
2023-02-09T15:17:30.473Z,75.55
2023-02-09T15:22:26.942Z,74.89
2023-02-09T15:27:34.799Z,74.81
2023-02-09T15:32:31.121Z,74.77
2023-02-09T15:37:32.738Z,75.40
2023-02-09T15:42:47.707Z,75.72
2023-02-09T15:47:50.387Z,77.49
2023-02-09T15:52:46.890Z,79.20
2023-02-09T15:57:43.295Z,81.35
2023-02-09T16:02:39.653Z,81.94
2023-02-09T16:07:37.293Z,81.68
2023-02-09T16:12:34.113Z,85.30
2023-02-09T16:17:30.431Z,89.40
2023-02-09T16:22:26.899Z,92.67
2023-02-09T16:27:26.165Z,96.56
2023-02-09T16:32:24.462Z,100.00
2023-02-09T16:37:31.397Z,100.00
2023-02-09T16:42:29.290Z,100.00
2023-02-09T16:47:27.388Z,100.00
2023-02-09T16:52:26.904Z,100.00
2023-02-09T16:57:25.033Z,100.00
2023-02-09T17:02:39.872Z,100.00
2023-02-09T17:07:48.667Z,100.00
2023-02-09T17:12:48.724Z,100.00
2023-02-09T17:17:52.898Z,100.00
2023-02-09T17:22:51.974Z,100.00
2023-02-09T17:27:48.317Z,100.00
2023-02-09T17:32:48.427Z,100.00
2023-02-09T17:37:45.491Z,100.00
2023-02-09T17:42:42.449Z,100.00
2023-02-09T17:47:40.373Z,100.00
2023-02-09T17:52:36.671Z,100.00
2023-02-09T17:57:33.012Z,100.00
2023-02-09T18:02:29.367Z,100.00
2023-02-09T18:07:25.676Z,100.00
2023-02-09T18:12:25.140Z,100.00
2023-02-09T18:17:21.445Z,100.00
2023-02-09T18:22:19.761Z,100.00
2023-02-09T18:27:24.378Z,100.00
2023-02-09T18:32:21.221Z,100.00
2023-02-09T18:37:17.611Z,100.00
2023-02-09T18:42:15.205Z,100.00
2023-02-09T18:47:11.790Z,100.00
2023-02-09T18:52:08.762Z,100.00
2023-02-09T18:57:05.123Z,100.00
2023-02-09T19:02:02.559Z,100.00
2023-02-09T19:06:58.900Z,100.00
2023-02-09T19:11:55.268Z,100.00
2023-02-09T19:16:51.608Z,100.00
2023-02-09T19:21:51.883Z,100.00
2023-02-09T19:26:48.366Z,100.00
2023-02-09T19:31:46.269Z,100.00
2023-02-09T19:36:43.319Z,100.00
2023-02-09T19:41:39.656Z,100.00
2023-02-09T19:46:36.088Z,100.00
2023-02-09T19:51:32.855Z,100.00
2023-02-09T19:56:29.494Z,100.00
2023-02-09T20:01:26.902Z,100.00
2023-02-09T20:06:23.953Z,100.00
2023-02-09T20:11:20.972Z,100.00
2023-02-09T20:16:20.329Z,100.00
2023-02-09T20:21:18.328Z,100.00
2023-02-09T20:26:18.831Z,100.00
2023-02-09T20:31:24.400Z,100.00
2023-02-09T20:36:23.773Z,100.00
2023-02-09T20:41:21.079Z,100.00
2023-02-09T20:46:40.016Z,100.00
2023-02-09T20:51:36.588Z,100.00
2023-02-09T20:56:33.090Z,100.00
2023-02-09T21:01:29.418Z,100.00
2023-02-09T21:06:26.520Z,100.00
2023-02-09T21:11:22.910Z,100.00
2023-02-09T21:16:20.371Z,100.00
2023-02-09T21:21:17.985Z,100.00
2023-02-09T21:26:16.858Z,100.00
2023-02-09T21:31:16.503Z,100.00
2023-02-09T21:36:13.140Z,100.00
2023-02-09T21:41:35.101Z,100.00
2023-02-09T21:46:32.288Z,100.00
2023-02-09T21:51:28.763Z,100.00
2023-02-09T21:56:26.019Z,100.00
2023-02-09T22:01:22.441Z,100.00
2023-02-09T22:06:18.794Z,100.00
2023-02-09T22:11:15.088Z,100.00
2023-02-09T22:16:17.943Z,100.00
2023-02-09T22:21:14.352Z,100.00
2023-02-09T22:26:13.687Z,100.00
2023-02-09T22:31:13.509Z,100.00
2023-02-09T22:36:15.498Z,100.00
2023-02-09T22:41:23.165Z,100.00
2023-02-09T22:46:23.549Z,100.00
2023-02-09T22:51:20.960Z,100.00
2023-02-09T22:56:17.390Z,100.00
2023-02-09T23:01:14.579Z,100.00
2023-02-09T23:06:14.489Z,100.00
2023-02-09T23:11:17.430Z,100.00
2023-02-09T23:16:23.600Z,100.00
2023-02-09T23:21:22.614Z,100.00
2023-02-09T23:26:20.375Z,100.00
2023-02-09T23:31:18.643Z,100.00
2023-02-09T23:36:18.229Z,100.00
2023-02-09T23:41:16.817Z,100.00
2023-02-09T23:46:16.079Z,100.00
2023-02-09T23:51:14.603Z,100.00
2023-02-09T23:56:13.148Z,100.00
